createdAt,value
2018-08-19T00:01:31.591Z,66.82
2018-08-19T00:04:00.565Z,67.21
2018-08-19T00:06:29.399Z,67.30
2018-08-19T00:09:02.342Z,66.29
2018-08-19T00:11:31.224Z,66.53
2018-08-19T00:14:00.039Z,66.48
2018-08-19T00:16:29.238Z,67.15
2018-08-19T00:18:58.074Z,66.31
2018-08-19T00:21:26.951Z,66.33
2018-08-19T00:23:55.792Z,67.17
2018-08-19T00:26:24.594Z,66.54
2018-08-19T00:28:53.430Z,66.77
2018-08-19T00:31:22.218Z,67.47
2018-08-19T00:33:51.115Z,67.68
2018-08-19T00:36:26.891Z,67.16
2018-08-19T00:38:56.520Z,67.89
2018-08-19T00:41:25.543Z,68.26
2018-08-19T00:43:54.398Z,67.21
2018-08-19T00:46:32.101Z,68.12
2018-08-19T00:49:01.603Z,67.34
2018-08-19T00:51:30.446Z,66.94
2018-08-19T00:53:59.266Z,66.95
2018-08-19T00:56:28.095Z,67.51
2018-08-19T00:58:57.003Z,66.72
2018-08-19T01:01:32.962Z,66.90
2018-08-19T01:04:01.842Z,66.80
2018-08-19T01:06:33.744Z,67.82
2018-08-19T01:09:02.585Z,67.16
2018-08-19T01:11:36.637Z,67.25
2018-08-19T01:14:09.761Z,67.36
2018-08-19T01:16:38.602Z,67.24
2018-08-19T01:19:08.113Z,67.99
2018-08-19T01:21:37.365Z,67.09
2018-08-19T01:24:10.882Z,66.87
2018-08-19T01:26:41.083Z,67.94
2018-08-19T01:29:11.111Z,67.89
2018-08-19T01:31:40.027Z,67.73
2018-08-19T01:34:11.118Z,67.06
2018-08-19T01:36:39.995Z,67.89
2018-08-19T01:39:11.785Z,67.58
2018-08-19T01:41:41.392Z,67.24
2018-08-19T01:44:14.781Z,67.50
2018-08-19T01:46:48.156Z,67.79
2018-08-19T01:49:16.959Z,67.09
2018-08-19T01:51:46.490Z,67.82
2018-08-19T01:54:20.540Z,67.43
2018-08-19T01:56:56.680Z,68.22
2018-08-19T01:59:34.661Z,67.67
2018-08-19T02:02:05.104Z,69.47
2018-08-19T02:04:35.688Z,68.73
2018-08-19T02:07:04.632Z,67.86
2018-08-19T02:09:33.504Z,67.60
2018-08-19T02:12:02.360Z,67.39
2018-08-19T02:14:31.267Z,67.36
2018-08-19T02:17:00.188Z,67.74
2018-08-19T02:19:29.007Z,67.88
2018-08-19T02:21:57.796Z,68.82
2018-08-19T02:24:26.635Z,68.86
2018-08-19T02:26:55.466Z,68.30
2018-08-19T02:29:33.450Z,68.72
2018-08-19T02:32:03.454Z,69.36
2018-08-19T02:34:37.275Z,69.67
2018-08-19T02:37:13.708Z,69.00
2018-08-19T02:39:44.562Z,69.58
2018-08-19T02:42:25.306Z,70.00
2018-08-19T02:44:58.479Z,69.28
2018-08-19T02:47:27.632Z,69.95
2018-08-19T02:49:56.454Z,68.99
2018-08-19T02:52:28.482Z,69.45
2018-08-19T02:54:59.363Z,70.20
2018-08-19T02:57:29.098Z,69.59
2018-08-19T02:59:58.796Z,69.61
2018-08-19T03:02:34.601Z,69.72
2018-08-19T03:05:06.553Z,70.27
2018-08-19T03:07:35.422Z,70.05
2018-08-19T03:10:09.811Z,70.63
2018-08-19T03:12:38.987Z,70.34
2018-08-19T03:15:09.076Z,70.08
2018-08-19T03:17:38.185Z,70.88
2018-08-19T03:20:09.729Z,70.79
2018-08-19T03:22:38.575Z,70.70
2018-08-19T03:25:08.208Z,70.32
2018-08-19T03:27:37.071Z,70.79
2018-08-19T03:30:10.798Z,71.71
2018-08-19T03:32:49.367Z,71.05
2018-08-19T03:35:19.989Z,71.34
2018-08-19T03:37:51.263Z,70.65
2018-08-19T03:40:20.775Z,71.23
2018-08-19T03:42:49.567Z,71.04
2018-08-19T03:45:19.012Z,71.27
2018-08-19T03:47:48.421Z,71.16
2018-08-19T03:50:22.072Z,71.30
2018-08-19T03:52:51.750Z,71.32
2018-08-19T03:55:25.926Z,71.49
2018-08-19T03:57:59.530Z,70.92
2018-08-19T04:00:30.394Z,71.28
2018-08-19T04:02:59.188Z,71.14
2018-08-19T04:05:42.166Z,71.04
2018-08-19T04:08:12.634Z,71.19
2018-08-19T04:10:42.523Z,70.53
2018-08-19T04:13:45.336Z,70.77
2018-08-19T04:16:14.242Z,71.21
2018-08-19T04:18:45.207Z,70.33
2018-08-19T04:21:15.277Z,70.12
2018-08-19T04:23:47.108Z,69.19
2018-08-19T04:26:15.904Z,69.89
2018-08-19T04:28:45.563Z,68.82
2018-08-19T04:31:19.754Z,66.68
2018-08-19T04:33:49.267Z,63.77
2018-08-19T04:36:19.432Z,62.32
2018-08-19T04:38:48.238Z,60.44
2018-08-19T04:41:17.195Z,58.40
2018-08-19T04:43:46.705Z,57.35
2018-08-19T04:46:15.571Z,56.51
2018-08-19T04:48:46.259Z,54.51
2018-08-19T04:51:15.082Z,52.30
2018-08-19T04:53:43.942Z,52.35
2018-08-19T04:56:12.773Z,51.23
2018-08-19T04:58:41.610Z,50.52
2018-08-19T05:01:11.013Z,49.11
2018-08-19T05:03:39.883Z,47.38
2018-08-19T05:06:08.703Z,47.15
2018-08-19T05:08:37.560Z,46.07
2018-08-19T05:11:06.422Z,46.03
2018-08-19T05:13:35.270Z,46.56
2018-08-19T05:16:04.127Z,48.52
2018-08-19T05:18:32.965Z,49.18
2018-08-19T05:21:17.066Z,51.13
2018-08-19T05:23:46.282Z,52.17
2018-08-19T05:26:15.479Z,52.71
2018-08-19T05:28:53.134Z,54.32
2018-08-19T05:31:22.019Z,54.63
2018-08-19T05:33:50.807Z,54.97
2018-08-19T05:36:19.751Z,55.53
2018-08-19T05:38:48.678Z,55.33
2018-08-19T05:41:17.530Z,55.35
2018-08-19T05:43:52.930Z,54.65
2018-08-19T05:46:21.708Z,55.63
2018-08-19T05:48:51.509Z,55.02
2018-08-19T05:51:20.307Z,55.88
2018-08-19T05:53:53.684Z,55.34
2018-08-19T05:56:22.706Z,55.58
2018-08-19T05:59:28.829Z,55.12
2018-08-19T06:01:57.774Z,55.82
2018-08-19T06:04:26.783Z,55.79
2018-08-19T06:06:59.986Z,56.25
2018-08-19T06:09:28.859Z,56.69
2018-08-19T06:11:57.783Z,57.17
2018-08-19T06:14:26.748Z,57.61
2018-08-19T06:16:56.082Z,57.36
2018-08-19T06:19:25.082Z,57.62
2018-08-19T06:21:57.822Z,56.88
2018-08-19T06:24:27.145Z,56.37
2018-08-19T06:26:56.047Z,56.98
2018-08-19T06:29:38.928Z,56.60
2018-08-19T06:32:07.852Z,56.76
2018-08-19T06:34:36.729Z,57.69
2018-08-19T06:37:06.169Z,57.68
2018-08-19T06:39:35.491Z,57.79
2018-08-19T06:42:04.344Z,57.26
2018-08-19T06:44:33.142Z,56.64
2018-08-19T06:47:02.062Z,56.55
2018-08-19T06:49:31.726Z,57.55
2018-08-19T06:52:00.509Z,56.65
2018-08-19T06:54:29.347Z,56.72
2018-08-19T06:56:58.821Z,57.30
2018-08-19T06:59:27.640Z,55.65
2018-08-19T07:01:56.474Z,56.72
2018-08-19T07:04:25.291Z,56.33
2018-08-19T07:06:54.104Z,56.61
2018-08-19T07:09:22.921Z,54.36
2018-08-19T07:12:00.532Z,56.16
2018-08-19T07:14:30.508Z,55.65
2018-08-19T07:17:00.292Z,55.17
2018-08-19T07:19:29.116Z,55.16
2018-08-19T07:22:03.064Z,54.99
2018-08-19T07:24:33.175Z,53.59
2018-08-19T07:27:02.580Z,54.52
2018-08-19T07:29:32.205Z,53.18
2018-08-19T07:32:01.593Z,53.38
2018-08-19T07:34:30.408Z,52.90
2018-08-19T07:36:59.323Z,53.45
2018-08-19T07:39:28.615Z,52.64
2018-08-19T07:41:57.616Z,52.23
2018-08-19T07:44:26.499Z,52.20
2018-08-19T07:46:55.574Z,52.04
2018-08-19T07:49:24.412Z,50.90
2018-08-19T07:51:53.268Z,51.86
2018-08-19T07:54:22.088Z,51.79
2018-08-19T07:56:50.924Z,51.18
2018-08-19T07:59:19.793Z,51.09
2018-08-19T08:01:49.138Z,50.91
2018-08-19T08:04:18.158Z,49.59
2018-08-19T08:06:46.987Z,49.27
2018-08-19T08:09:17.545Z,48.07
2018-08-19T08:11:46.351Z,48.46
2018-08-19T08:14:15.193Z,48.38
2018-08-19T08:16:49.277Z,47.84
2018-08-19T08:19:18.144Z,47.45
2018-08-19T08:21:46.955Z,46.11
2018-08-19T08:24:15.782Z,46.38
2018-08-19T08:26:51.648Z,46.46
2018-08-19T08:29:20.675Z,46.03
2018-08-19T08:31:54.622Z,46.84
2018-08-19T08:34:23.866Z,45.94
2018-08-19T08:36:56.954Z,44.18
2018-08-19T08:39:25.900Z,45.26
2018-08-19T08:41:58.444Z,45.11
2018-08-19T08:44:27.574Z,44.24
2018-08-19T08:46:58.780Z,44.08
2018-08-19T08:49:32.798Z,43.68
2018-08-19T08:52:03.464Z,41.93
2018-08-19T08:54:33.157Z,41.80
2018-08-19T08:57:01.975Z,41.92
2018-08-19T08:59:30.882Z,41.73
2018-08-19T09:01:59.740Z,41.01
2018-08-19T09:04:28.906Z,40.26
2018-08-19T09:06:57.708Z,39.64
2018-08-19T09:09:26.495Z,40.29
2018-08-19T09:11:55.325Z,35.98
2018-08-19T09:14:24.124Z,35.06
2018-08-19T09:16:53.016Z,35.56
2018-08-19T09:19:21.834Z,32.78
2018-08-19T09:21:51.195Z,34.44
2018-08-19T09:24:20.431Z,34.77
2018-08-19T09:26:53.079Z,35.72
2018-08-19T09:29:21.877Z,35.83
2018-08-19T09:31:50.690Z,33.83
2018-08-19T09:34:19.463Z,32.92
2018-08-19T09:36:48.291Z,33.14
2018-08-19T09:39:17.498Z,32.98
2018-08-19T09:41:46.415Z,32.44
2018-08-19T09:44:15.271Z,33.88
2018-08-19T09:46:44.126Z,33.01
2018-08-19T09:49:12.890Z,32.69
2018-08-19T09:51:41.665Z,31.69
2018-08-19T09:54:10.722Z,32.29
2018-08-19T09:56:39.753Z,32.21
2018-08-19T09:59:09.260Z,32.58
2018-08-19T10:01:42.263Z,30.57
2018-08-19T10:04:22.550Z,31.28
2018-08-19T10:07:04.347Z,30.00
2018-08-19T10:09:33.169Z,30.46
2018-08-19T10:12:01.960Z,29.46
2018-08-19T10:14:30.803Z,30.10
2018-08-19T10:16:59.675Z,29.31
2018-08-19T10:19:28.478Z,30.43
2018-08-19T10:21:57.381Z,29.00
2018-08-19T10:24:31.740Z,29.59
2018-08-19T10:27:01.018Z,28.25
2018-08-19T10:29:29.921Z,28.32
2018-08-19T10:32:00.941Z,29.69
2018-08-19T10:34:37.030Z,28.80
2018-08-19T10:37:06.967Z,28.66
2018-08-19T10:39:35.706Z,28.68
2018-08-19T10:42:20.456Z,29.25
2018-08-19T10:44:51.339Z,28.24
2018-08-19T10:47:21.102Z,26.05
2018-08-19T10:49:56.394Z,27.05
2018-08-19T10:52:28.420Z,26.59
2018-08-19T10:54:58.727Z,27.13
2018-08-19T10:57:27.548Z,26.78
2018-08-19T10:59:57.646Z,25.88
2018-08-19T11:02:26.693Z,26.16
2018-08-19T11:04:57.105Z,27.02
2018-08-19T11:07:26.409Z,26.23
2018-08-19T11:10:11.640Z,27.70
2018-08-19T11:12:40.387Z,26.20
2018-08-19T11:15:24.307Z,27.00
2018-08-19T11:17:53.112Z,26.77
2018-08-19T11:20:26.075Z,25.55
2018-08-19T11:22:55.561Z,26.28
2018-08-19T11:25:28.034Z,26.84
2018-08-19T11:27:57.844Z,25.86
2018-08-19T11:30:27.072Z,26.84
2018-08-19T11:32:55.914Z,26.55
2018-08-19T11:35:27.647Z,26.46
2018-08-19T11:37:56.442Z,26.44
2018-08-19T11:40:25.309Z,26.84
2018-08-19T11:42:54.060Z,25.78
2018-08-19T11:45:22.858Z,25.99
2018-08-19T11:48:01.871Z,25.80
2018-08-19T11:50:30.877Z,26.18
2018-08-19T11:52:59.682Z,26.73
2018-08-19T11:55:28.499Z,27.64
2018-08-19T11:57:57.551Z,29.27
2018-08-19T12:00:30.844Z,30.38
2018-08-19T12:02:59.890Z,31.56
2018-08-19T12:05:28.679Z,30.76
2018-08-19T12:08:00.853Z,32.18
2018-08-19T12:10:29.631Z,32.64
2018-08-19T12:13:00.402Z,30.90
2018-08-19T12:15:29.186Z,30.12
2018-08-19T12:17:57.963Z,29.68
2018-08-19T12:20:31.694Z,29.13
2018-08-19T12:23:00.578Z,27.96
2018-08-19T12:25:29.428Z,29.10
2018-08-19T12:27:58.274Z,29.71
2018-08-19T12:30:27.996Z,30.12
2018-08-19T12:33:31.466Z,29.25
2018-08-19T12:36:00.223Z,29.56
2018-08-19T12:38:29.047Z,29.92
2018-08-19T12:40:57.864Z,28.93
2018-08-19T12:43:27.118Z,29.21
2018-08-19T12:45:55.993Z,30.79
2018-08-19T12:48:24.734Z,29.67
2018-08-19T12:50:58.772Z,29.75
2018-08-19T12:53:27.595Z,28.94
2018-08-19T12:55:56.548Z,28.99
2018-08-19T12:58:25.412Z,31.64
2018-08-19T13:00:54.565Z,32.24
2018-08-19T13:03:26.737Z,35.59
2018-08-19T13:06:04.411Z,39.08
2018-08-19T13:08:33.207Z,41.57
2018-08-19T13:11:03.961Z,42.40
2018-08-19T13:13:34.007Z,44.51
2018-08-19T13:16:02.895Z,45.22
2018-08-19T13:18:36.854Z,46.66
2018-08-19T13:21:10.965Z,46.18
2018-08-19T13:23:39.807Z,46.41
2018-08-19T13:26:08.633Z,47.02
2018-08-19T13:28:39.336Z,47.27
2018-08-19T13:31:08.667Z,47.40
2018-08-19T13:33:37.566Z,46.54
2018-08-19T13:36:06.510Z,45.90
2018-08-19T13:38:37.726Z,45.74
2018-08-19T13:41:07.895Z,45.08
2018-08-19T13:43:38.147Z,44.76
2018-08-19T13:46:07.099Z,43.44
2018-08-19T13:48:35.915Z,42.99
2018-08-19T13:51:05.170Z,42.84
2018-08-19T13:53:34.009Z,42.45
2018-08-19T13:56:02.934Z,42.46
2018-08-19T13:58:31.776Z,42.28
2018-08-19T14:01:00.631Z,41.84
2018-08-19T14:03:29.399Z,42.45
2018-08-19T14:05:58.227Z,42.36
2018-08-19T14:08:26.994Z,44.28
2018-08-19T14:10:55.823Z,43.00
2018-08-19T14:13:24.634Z,42.46
2018-08-19T14:15:53.520Z,43.83
2018-08-19T14:18:22.316Z,43.31
2018-08-19T14:20:51.207Z,43.37
2018-08-19T14:23:20.019Z,43.70
2018-08-19T14:25:48.808Z,42.78
2018-08-19T14:28:17.566Z,42.69
2018-08-19T14:30:46.430Z,41.71
2018-08-19T14:33:15.414Z,41.45
2018-08-19T14:35:44.223Z,41.05
2018-08-19T14:38:13.087Z,41.01
2018-08-19T14:40:41.958Z,41.26
2018-08-19T14:43:10.806Z,39.45
2018-08-19T14:45:40.400Z,40.10
2018-08-19T14:48:09.264Z,40.47
2018-08-19T14:50:38.106Z,39.64
2018-08-19T14:53:07.015Z,41.20
2018-08-19T14:55:35.813Z,41.00
2018-08-19T14:58:05.044Z,41.10
2018-08-19T15:00:34.243Z,40.55
2018-08-19T15:03:03.027Z,40.33
2018-08-19T15:05:32.047Z,41.00
2018-08-19T15:08:06.835Z,39.89
2018-08-19T15:10:35.687Z,41.25
2018-08-19T15:13:04.505Z,40.49
2018-08-19T15:15:33.322Z,40.07
2018-08-19T15:18:02.358Z,40.67
2018-08-19T15:20:33.798Z,40.55
2018-08-19T15:23:14.260Z,40.15
2018-08-19T15:25:43.428Z,40.58
2018-08-19T15:28:12.221Z,40.45
2018-08-19T15:30:41.920Z,40.12
2018-08-19T15:33:11.779Z,40.50
2018-08-19T15:35:41.006Z,38.90
2018-08-19T15:38:10.279Z,37.94
2018-08-19T15:40:41.573Z,38.70
2018-08-19T15:43:11.643Z,39.71
2018-08-19T15:45:41.376Z,40.04
2018-08-19T15:48:10.181Z,40.93
2018-08-19T15:50:39.042Z,41.79
2018-08-19T15:53:08.853Z,41.90
2018-08-19T15:55:38.158Z,41.36
2018-08-19T15:58:07.262Z,42.24
2018-08-19T16:00:38.771Z,41.95
2018-08-19T16:03:08.481Z,42.53
2018-08-19T16:05:37.266Z,42.74
2018-08-19T16:08:06.693Z,42.50
2018-08-19T16:10:35.543Z,42.34
2018-08-19T16:13:08.858Z,42.07
2018-08-19T16:15:37.729Z,43.20
2018-08-19T16:18:06.770Z,43.15
2018-08-19T16:20:35.643Z,42.84
2018-08-19T16:23:04.437Z,42.65
2018-08-19T16:25:33.391Z,42.04
2018-08-19T16:28:02.255Z,42.77
2018-08-19T16:30:31.110Z,43.20
2018-08-19T16:32:59.931Z,41.99
2018-08-19T16:35:28.706Z,42.62
2018-08-19T16:37:57.543Z,42.35
2018-08-19T16:40:26.380Z,42.37
2018-08-19T16:42:55.171Z,43.77
2018-08-19T16:45:24.006Z,43.60
2018-08-19T16:47:52.793Z,43.34
2018-08-19T16:50:21.747Z,42.98
2018-08-19T16:52:50.709Z,43.67
2018-08-19T16:55:19.580Z,42.94
2018-08-19T16:57:48.396Z,44.14
2018-08-19T17:00:17.195Z,43.56
2018-08-19T17:02:46.095Z,43.62
2018-08-19T17:05:31.876Z,43.76
2018-08-19T17:08:00.782Z,43.39
2018-08-19T17:10:30.193Z,43.61
2018-08-19T17:12:59.688Z,45.15
2018-08-19T17:15:28.872Z,44.63
2018-08-19T17:17:57.794Z,45.51
2018-08-19T17:20:26.658Z,44.50
2018-08-19T17:22:55.463Z,44.81
2018-08-19T17:25:24.222Z,44.67
2018-08-19T17:27:53.037Z,45.08
2018-08-19T17:30:21.831Z,46.42
2018-08-19T17:33:03.016Z,45.55
2018-08-19T17:35:31.965Z,46.55
2018-08-19T17:38:00.807Z,46.13
2018-08-19T17:40:31.684Z,46.35
2018-08-19T17:43:01.130Z,45.83
2018-08-19T17:45:29.988Z,46.39
2018-08-19T17:47:58.914Z,47.07
2018-08-19T17:50:28.844Z,47.25
2018-08-19T17:52:58.991Z,47.55
2018-08-19T17:55:28.059Z,47.05
2018-08-19T17:57:58.359Z,45.91
2018-08-19T18:00:27.267Z,46.28
2018-08-19T18:02:56.219Z,46.72
2018-08-19T18:05:25.158Z,47.28
2018-08-19T18:07:54.946Z,48.00
2018-08-19T18:10:23.758Z,46.69
2018-08-19T18:12:52.851Z,46.63
2018-08-19T18:15:23.415Z,47.71
2018-08-19T18:18:01.675Z,47.49
2018-08-19T18:20:36.626Z,48.33
2018-08-19T18:23:07.887Z,47.95
2018-08-19T18:25:36.680Z,48.37
2018-08-19T18:28:11.465Z,48.79
2018-08-19T18:30:40.401Z,48.77
2018-08-19T18:33:09.581Z,49.97
2018-08-19T18:35:38.391Z,49.44
2018-08-19T18:38:17.044Z,50.28
2018-08-19T18:40:46.034Z,50.66
2018-08-19T18:43:14.885Z,51.40
2018-08-19T18:45:46.607Z,50.70
2018-08-19T18:48:16.090Z,50.81
2018-08-19T18:50:44.913Z,50.33
2018-08-19T18:53:13.774Z,50.66
2018-08-19T18:55:42.830Z,50.53
2018-08-19T18:58:11.737Z,50.48
2018-08-19T19:01:00.359Z,50.86
2018-08-19T19:03:29.302Z,50.47
2018-08-19T19:05:58.506Z,49.97
2018-08-19T19:08:27.287Z,50.18
2018-08-19T19:11:10.718Z,51.62
2018-08-19T19:13:39.526Z,51.17
2018-08-19T19:16:08.943Z,51.64
2018-08-19T19:18:37.737Z,49.89
2018-08-19T19:21:07.256Z,49.93
2018-08-19T19:23:37.590Z,51.37
2018-08-19T19:26:07.596Z,52.02
2018-08-19T19:28:36.459Z,51.28
2018-08-19T19:31:11.106Z,50.77
2018-08-19T19:33:39.878Z,50.17
2018-08-19T19:36:13.970Z,49.54
2018-08-19T19:38:54.164Z,50.63
2018-08-19T19:41:28.058Z,51.92
2018-08-19T19:43:56.869Z,51.50
2018-08-19T19:46:26.002Z,52.77
2018-08-19T19:48:55.190Z,51.09
2018-08-19T19:51:24.020Z,51.92
2018-08-19T19:53:52.839Z,52.39
2018-08-19T19:56:21.627Z,51.19
2018-08-19T19:58:51.968Z,52.83
2018-08-19T20:01:20.821Z,51.97
2018-08-19T20:03:54.920Z,52.78
2018-08-19T20:06:24.189Z,53.18
2018-08-19T20:08:53.374Z,53.28
2018-08-19T20:11:30.263Z,53.08
2018-08-19T20:14:00.764Z,52.82
2018-08-19T20:16:29.568Z,53.31
2018-08-19T20:18:58.382Z,51.19
2018-08-19T20:21:28.443Z,51.68
2018-08-19T20:23:58.402Z,51.77
2018-08-19T20:26:27.691Z,52.35
2018-08-19T20:28:58.679Z,51.43
2018-08-19T20:31:27.523Z,51.23
2018-08-19T20:33:56.371Z,51.42
2018-08-19T20:36:25.597Z,51.38
2018-08-19T20:38:54.446Z,51.46
2018-08-19T20:41:23.290Z,51.34
2018-08-19T20:43:52.182Z,51.57
2018-08-19T20:46:21.024Z,51.26
2018-08-19T20:48:49.910Z,52.29
2018-08-19T20:51:18.730Z,52.02
2018-08-19T20:53:47.542Z,52.99
2018-08-19T20:56:16.334Z,53.18
2018-08-19T20:58:45.177Z,52.29
2018-08-19T21:01:19.296Z,52.13
2018-08-19T21:03:48.082Z,53.13
2018-08-19T21:06:16.913Z,53.16
2018-08-19T21:08:45.699Z,52.39
2018-08-19T21:11:14.494Z,52.78
2018-08-19T21:13:43.292Z,53.77
2018-08-19T21:16:12.066Z,53.44
2018-08-19T21:18:40.925Z,53.42
2018-08-19T21:21:09.778Z,53.77
2018-08-19T21:23:38.641Z,52.83
2018-08-19T21:26:07.551Z,52.28
2018-08-19T21:28:36.362Z,53.06
2018-08-19T21:31:11.766Z,54.56
2018-08-19T21:33:40.608Z,53.83
2018-08-19T21:36:09.552Z,54.50
2018-08-19T21:38:38.342Z,53.41
2018-08-19T21:41:07.122Z,54.38
2018-08-19T21:43:35.937Z,53.47
2018-08-19T21:46:04.804Z,53.32
2018-08-19T21:48:33.591Z,53.56
2018-08-19T21:51:02.385Z,54.00
2018-08-19T21:53:31.174Z,53.57
2018-08-19T21:55:59.944Z,53.61
2018-08-19T21:58:28.796Z,53.06
2018-08-19T22:01:02.503Z,54.16
2018-08-19T22:03:51.938Z,53.77
2018-08-19T22:06:20.763Z,53.66
2018-08-19T22:08:49.609Z,53.57
2018-08-19T22:11:18.465Z,53.93
2018-08-19T22:13:47.307Z,55.07
2018-08-19T22:16:16.119Z,55.20
2018-08-19T22:18:45.011Z,56.71
2018-08-19T22:21:18.917Z,57.14
2018-08-19T22:23:50.138Z,56.57
2018-08-19T22:26:20.024Z,57.17
2018-08-19T22:29:51.815Z,57.32
2018-08-19T22:32:20.683Z,58.15
2018-08-19T22:34:49.510Z,57.85
2018-08-19T22:37:18.364Z,58.70
2018-08-19T22:39:48.153Z,58.52
2018-08-19T22:42:17.133Z,59.44
2018-08-19T22:44:46.097Z,58.78
2018-08-19T22:47:14.886Z,59.62
2018-08-19T22:49:43.711Z,59.35
2018-08-19T22:52:19.896Z,60.36
2018-08-19T22:54:50.424Z,59.66
2018-08-19T22:57:19.253Z,59.73
2018-08-19T22:59:48.091Z,60.73
2018-08-19T23:02:17.291Z,60.54
2018-08-19T23:04:46.831Z,60.96
2018-08-19T23:07:15.713Z,60.55
2018-08-19T23:09:44.573Z,61.07
2018-08-19T23:12:13.344Z,60.86
2018-08-19T23:14:53.074Z,61.59
2018-08-19T23:17:22.255Z,61.89
2018-08-19T23:19:51.964Z,61.21
2018-08-19T23:22:20.816Z,61.09
2018-08-19T23:24:49.624Z,61.18
2018-08-19T23:27:18.390Z,62.08
2018-08-19T23:29:47.215Z,62.21
2018-08-19T23:32:16.090Z,61.58
2018-08-19T23:34:44.854Z,61.92
2018-08-19T23:37:13.606Z,62.19
2018-08-19T23:39:42.402Z,62.15
2018-08-19T23:42:11.198Z,63.15
2018-08-19T23:44:40.048Z,62.51
2018-08-19T23:47:08.872Z,63.34
2018-08-19T23:49:37.663Z,62.97
2018-08-19T23:52:06.550Z,63.49
2018-08-19T23:54:35.355Z,63.39
2018-08-19T23:57:04.493Z,63.24
2018-08-19T23:59:35.935Z,63.28
